createdAt,value
2019-02-15T00:01:43.417Z,97215.17
2019-02-15T00:04:11.672Z,97210.88
2019-02-15T00:06:39.962Z,97208.76
2019-02-15T00:09:08.224Z,97208.14
2019-02-15T00:11:36.529Z,97212.33
2019-02-15T00:14:04.853Z,97207.32
2019-02-15T00:16:33.120Z,97206.98
2019-02-15T00:19:05.719Z,97212.33
2019-02-15T00:21:34.086Z,97212.46
2019-02-15T00:24:02.380Z,97212.91
2019-02-15T00:26:30.633Z,97207.27
2019-02-15T00:28:58.912Z,97195.14
2019-02-15T00:31:27.198Z,97191.48
2019-02-15T00:33:55.469Z,97192.16
2019-02-15T00:36:23.730Z,97197.64
2019-02-15T00:38:51.990Z,97198.84
2019-02-15T00:41:20.285Z,97193.66
2019-02-15T00:43:48.577Z,97189.89
2019-02-15T00:46:21.529Z,97181.94
2019-02-15T00:48:49.820Z,97182.52
2019-02-15T00:51:36.194Z,97186.23
2019-02-15T00:54:09.119Z,97187.16
2019-02-15T00:56:39.011Z,97186.84
2019-02-15T00:59:08.918Z,97192.02
2019-02-15T01:01:50.716Z,97188.18
2019-02-15T01:04:29.349Z,97190.20
2019-02-15T01:07:11.317Z,97194.39
2019-02-15T01:09:44.253Z,97188.35
2019-02-15T01:12:23.254Z,97190.59
2019-02-15T01:14:51.544Z,97188.94
2019-02-15T01:17:19.798Z,97178.89
2019-02-15T01:19:48.084Z,97172.95
2019-02-15T01:22:16.340Z,97174.23
2019-02-15T01:24:44.635Z,97171.17
2019-02-15T01:27:17.010Z,97177.28
2019-02-15T01:29:58.976Z,97174.16
2019-02-15T01:32:37.645Z,97163.22
2019-02-15T01:35:07.574Z,97163.67
2019-02-15T01:37:49.399Z,97159.76
2019-02-15T01:40:19.298Z,97153.76
2019-02-15T01:42:52.201Z,97141.94
2019-02-15T01:45:24.852Z,97143.09
2019-02-15T01:47:53.167Z,97137.44
2019-02-15T01:50:21.422Z,97140.66
2019-02-15T01:52:49.695Z,97132.78
2019-02-15T01:55:17.983Z,97127.36
2019-02-15T01:57:46.286Z,97122.16
2019-02-15T02:00:16.120Z,97125.69
2019-02-15T02:02:44.378Z,97131.34
2019-02-15T02:05:12.669Z,97134.73
2019-02-15T02:07:40.931Z,97124.83
2019-02-15T02:10:10.317Z,97121.75
2019-02-15T02:12:38.574Z,97126.95
2019-02-15T02:15:08.720Z,97121.88
2019-02-15T02:17:37.009Z,97121.54
2019-02-15T02:20:08.017Z,97117.16
2019-02-15T02:22:36.276Z,97122.47
2019-02-15T02:25:05.802Z,97123.73
2019-02-15T02:27:34.060Z,97120.95
2019-02-15T02:30:02.426Z,97123.38
2019-02-15T02:32:30.680Z,97129.91
2019-02-15T02:34:58.977Z,97128.45
2019-02-15T02:37:27.272Z,97126.02
2019-02-15T02:39:55.536Z,97125.75
2019-02-15T02:42:23.800Z,97128.45
2019-02-15T02:44:52.070Z,97131.16
2019-02-15T02:47:20.356Z,97137.55
2019-02-15T02:49:48.614Z,97125.38
2019-02-15T02:52:16.908Z,97130.17
2019-02-15T02:54:45.169Z,97135.35
2019-02-15T02:57:13.431Z,97140.08
2019-02-15T02:59:41.706Z,97138.71
2019-02-15T03:02:09.971Z,97146.91
2019-02-15T03:04:38.267Z,97150.20
2019-02-15T03:07:06.534Z,97147.08
2019-02-15T03:09:34.821Z,97142.92
2019-02-15T03:12:03.098Z,97141.18
2019-02-15T03:14:31.390Z,97139.91
2019-02-15T03:16:59.670Z,97137.03
2019-02-15T03:19:27.925Z,97142.79
2019-02-15T03:21:56.179Z,97152.19
2019-02-15T03:24:24.467Z,97145.05
2019-02-15T03:26:52.721Z,97156.30
2019-02-15T03:29:21.001Z,97155.12
2019-02-15T03:31:49.257Z,97149.61
2019-02-15T03:34:17.550Z,97147.69
2019-02-15T03:36:50.146Z,97146.08
2019-02-15T03:39:20.042Z,97154.55
2019-02-15T03:41:48.335Z,97157.67
2019-02-15T03:44:22.267Z,97152.73
2019-02-15T03:46:46.610Z,97151.56
2019-02-15T03:49:14.875Z,97151.98
2019-02-15T03:51:43.171Z,97156.58
2019-02-15T03:54:11.422Z,97160.38
2019-02-15T03:56:39.684Z,97155.30
2019-02-15T03:59:07.978Z,97156.47
2019-02-15T04:01:36.235Z,97155.61
2019-02-15T04:04:04.527Z,97150.98
2019-02-15T04:06:32.772Z,97150.64
2019-02-15T04:09:01.193Z,97161.98
2019-02-15T04:11:29.445Z,97167.03
2019-02-15T04:13:57.703Z,97161.61
2019-02-15T04:16:26.005Z,97160.38
2019-02-15T04:18:54.249Z,97157.33
2019-02-15T04:21:22.507Z,97159.08
2019-02-15T04:23:50.921Z,97151.05
2019-02-15T04:26:19.173Z,97152.32
2019-02-15T04:28:47.456Z,97149.72
2019-02-15T04:31:15.752Z,97148.38
2019-02-15T04:33:44.021Z,97153.52
2019-02-15T04:36:12.309Z,97148.38
2019-02-15T04:38:40.563Z,97155.06
2019-02-15T04:41:08.817Z,97152.94
2019-02-15T04:43:37.103Z,97146.91
2019-02-15T04:46:05.394Z,97147.59
2019-02-15T04:48:33.713Z,97147.93
2019-02-15T04:51:01.975Z,97153.17
2019-02-15T04:53:30.210Z,97160.84
2019-02-15T04:55:58.622Z,97151.83
2019-02-15T04:58:26.896Z,97155.88
2019-02-15T05:00:55.156Z,97159.09
2019-02-15T05:03:23.449Z,97163.05
2019-02-15T05:05:51.719Z,97165.06
2019-02-15T05:08:19.987Z,97166.67
2019-02-15T05:10:48.281Z,97177.45
2019-02-15T05:13:16.521Z,97172.47
2019-02-15T05:15:44.852Z,97177.42
2019-02-15T05:18:13.100Z,97187.16
2019-02-15T05:20:41.347Z,97185.37
2019-02-15T05:23:09.667Z,97192.38
2019-02-15T05:25:37.886Z,97196.14
2019-02-15T05:28:08.745Z,97190.55
2019-02-15T05:30:36.156Z,97191.55
2019-02-15T05:33:04.409Z,97200.05
2019-02-15T05:35:32.706Z,97197.22
2019-02-15T05:38:00.959Z,97206.56
2019-02-15T05:40:29.246Z,97204.03
2019-02-15T05:42:57.563Z,97212.08
2019-02-15T05:45:25.835Z,97213.64
2019-02-15T05:47:54.121Z,97217.96
2019-02-15T05:50:22.372Z,97219.56
2019-02-15T05:52:50.664Z,97220.45
2019-02-15T05:55:18.924Z,97222.31
2019-02-15T05:57:47.208Z,97223.51
2019-02-15T06:00:15.452Z,97224.98
2019-02-15T06:02:43.736Z,97225.17
2019-02-15T06:05:11.984Z,97222.06
2019-02-15T06:07:40.274Z,97223.98
2019-02-15T06:10:08.808Z,97230.91
2019-02-15T06:12:37.080Z,97232.97
2019-02-15T06:15:14.893Z,97233.47
2019-02-15T06:17:35.793Z,97239.20
2019-02-15T06:20:04.035Z,97242.80
2019-02-15T06:22:32.353Z,97246.71
2019-02-15T06:25:00.614Z,97248.91
2019-02-15T06:27:28.865Z,97244.86
2019-02-15T06:29:57.143Z,97259.36
2019-02-15T06:32:25.409Z,97269.83
2019-02-15T06:34:53.696Z,97258.56
2019-02-15T06:37:21.979Z,97261.25
2019-02-15T06:39:50.229Z,97265.50
2019-02-15T06:42:18.519Z,97270.19
2019-02-15T06:44:46.781Z,97275.70
2019-02-15T06:47:15.078Z,97280.24
2019-02-15T06:49:43.330Z,97280.24
2019-02-15T06:52:11.626Z,97279.38
2019-02-15T06:54:39.880Z,97277.79
2019-02-15T06:57:08.146Z,97279.95
2019-02-15T06:59:43.648Z,97281.05
2019-02-15T07:02:13.572Z,97287.37
2019-02-15T07:04:43.477Z,97288.98
2019-02-15T07:07:11.729Z,97287.44
2019-02-15T07:09:40.009Z,97288.90
2019-02-15T07:12:08.274Z,97286.16
2019-02-15T07:14:36.577Z,97280.91
2019-02-15T07:17:04.827Z,97284.50
2019-02-15T07:19:33.093Z,97291.24
2019-02-15T07:22:01.371Z,97291.58
2019-02-15T07:24:29.629Z,97296.31
2019-02-15T07:26:57.917Z,97299.41
2019-02-15T07:29:26.210Z,97300.56
2019-02-15T07:31:54.471Z,97297.29
2019-02-15T07:34:22.743Z,97296.70
2019-02-15T07:36:51.046Z,97295.44
2019-02-15T07:39:19.302Z,97303.61
2019-02-15T07:41:47.561Z,97305.81
2019-02-15T07:44:15.835Z,97304.81
2019-02-15T07:46:44.088Z,97301.61
2019-02-15T07:49:12.372Z,97308.41
2019-02-15T07:51:40.641Z,97306.95
2019-02-15T07:54:08.935Z,97312.14
2019-02-15T07:56:37.327Z,97312.45
2019-02-15T07:59:05.595Z,97318.98
2019-02-15T08:01:33.847Z,97319.58
2019-02-15T08:04:02.136Z,97317.23
2019-02-15T08:06:30.456Z,97322.82
2019-02-15T08:08:58.711Z,97319.50
2019-02-15T08:11:26.968Z,97322.45
2019-02-15T08:13:55.258Z,97320.88
2019-02-15T08:16:23.588Z,97321.14
2019-02-15T08:18:51.872Z,97318.50
2019-02-15T08:21:20.131Z,97315.28
2019-02-15T08:23:48.466Z,97316.29
2019-02-15T08:26:16.721Z,97317.27
2019-02-15T08:28:44.984Z,97321.66
2019-02-15T08:31:13.271Z,97317.25
2019-02-15T08:33:41.528Z,97319.02
2019-02-15T08:36:09.796Z,97311.47
2019-02-15T08:38:38.056Z,97316.25
2019-02-15T08:41:06.357Z,97315.80
2019-02-15T08:43:34.775Z,97312.33
2019-02-15T08:46:03.530Z,97316.92
2019-02-15T08:48:33.167Z,97313.38
2019-02-15T08:51:01.562Z,97320.00
2019-02-15T08:53:30.136Z,97316.11
2019-02-15T08:55:58.578Z,97312.59
2019-02-15T08:58:27.009Z,97318.22
2019-02-15T09:00:55.315Z,97313.25
2019-02-15T09:03:23.575Z,97311.67
2019-02-15T09:05:51.869Z,97314.34
2019-02-15T09:08:20.164Z,97315.97
2019-02-15T09:10:48.425Z,97307.53
2019-02-15T09:13:16.712Z,97303.78
2019-02-15T09:15:44.969Z,97298.59
2019-02-15T09:18:13.245Z,97312.92
2019-02-15T09:20:41.533Z,97307.09
2019-02-15T09:23:09.787Z,97311.37
2019-02-15T09:25:38.087Z,97313.92
2019-02-15T09:28:13.744Z,97313.85
2019-02-15T09:30:42.255Z,97319.28
2019-02-15T09:33:10.515Z,97319.52
2019-02-15T09:35:38.816Z,97329.17
2019-02-15T09:38:07.081Z,97326.98
2019-02-15T09:40:35.341Z,97322.52
2019-02-15T09:43:03.641Z,97320.68
2019-02-15T09:45:32.979Z,97317.96
2019-02-15T09:48:01.336Z,97318.73
2019-02-15T09:50:29.662Z,97321.25
2019-02-15T09:52:57.921Z,97316.58
2019-02-15T09:55:26.180Z,97311.88
2019-02-15T09:57:54.464Z,97314.09
2019-02-15T10:00:22.752Z,97316.38
2019-02-15T10:02:51.012Z,97307.34
2019-02-15T10:05:19.303Z,97301.58
2019-02-15T10:07:47.559Z,97295.13
2019-02-15T10:10:15.883Z,97298.83
2019-02-15T10:12:44.138Z,97295.99
2019-02-15T10:15:12.633Z,97300.81
2019-02-15T10:17:40.929Z,97294.89
2019-02-15T10:20:10.820Z,97293.12
2019-02-15T10:22:39.130Z,97293.62
2019-02-15T10:25:08.822Z,97291.48
2019-02-15T10:27:37.117Z,97285.69
2019-02-15T10:30:10.866Z,97293.38
2019-02-15T10:32:39.138Z,97291.28
2019-02-15T10:35:09.642Z,97284.08
2019-02-15T10:37:37.912Z,97285.00
2019-02-15T10:40:08.976Z,97275.79
2019-02-15T10:42:37.261Z,97269.92
2019-02-15T10:45:08.929Z,97271.67
2019-02-15T10:47:37.207Z,97272.97
2019-02-15T10:50:08.219Z,97265.05
2019-02-15T10:52:36.495Z,97261.77
2019-02-15T10:55:06.689Z,97259.44
2019-02-15T10:57:34.973Z,97257.09
2019-02-15T11:00:06.807Z,97255.11
2019-02-15T11:02:35.123Z,97253.20
2019-02-15T11:05:03.388Z,97254.20
2019-02-15T11:07:31.640Z,97252.30
2019-02-15T11:09:59.933Z,97249.20
2019-02-15T11:12:28.188Z,97255.75
2019-02-15T11:14:56.464Z,97248.12
2019-02-15T11:17:24.721Z,97248.17
2019-02-15T11:19:53.008Z,97252.13
2019-02-15T11:22:21.264Z,97249.16
2019-02-15T11:24:49.557Z,97248.69
2019-02-15T11:27:17.813Z,97247.20
2019-02-15T11:29:46.101Z,97244.30
2019-02-15T11:32:14.351Z,97241.11
2019-02-15T11:34:42.657Z,97242.02
2019-02-15T11:37:10.925Z,97240.11
2019-02-15T11:39:39.215Z,97234.19
2019-02-15T11:42:07.479Z,97236.84
2019-02-15T11:44:35.773Z,97236.84
2019-02-15T11:47:04.035Z,97234.30
2019-02-15T11:49:32.284Z,97229.75
2019-02-15T11:52:00.555Z,97234.14
2019-02-15T11:54:28.808Z,97235.65
2019-02-15T11:56:57.102Z,97229.64
2019-02-15T11:59:25.392Z,97231.39
2019-02-15T12:01:53.724Z,97231.33
2019-02-15T12:04:22.016Z,97234.80
2019-02-15T12:06:50.258Z,97234.43
2019-02-15T12:09:18.544Z,97232.91
2019-02-15T12:11:46.796Z,97223.97
2019-02-15T12:14:15.090Z,97231.25
2019-02-15T12:16:43.351Z,97226.03
2019-02-15T12:19:11.639Z,97232.98
2019-02-15T12:21:39.893Z,97231.21
2019-02-15T12:24:08.145Z,97238.80
2019-02-15T12:26:36.427Z,97238.38
2019-02-15T12:29:04.683Z,97235.41
2019-02-15T12:31:32.969Z,97234.48
2019-02-15T12:34:01.222Z,97229.33
2019-02-15T12:36:29.500Z,97236.66
2019-02-15T12:38:57.757Z,97231.81
2019-02-15T12:41:26.054Z,97228.39
2019-02-15T12:43:54.304Z,97237.47
2019-02-15T12:46:22.563Z,97233.09
2019-02-15T12:48:50.838Z,97226.64
2019-02-15T12:51:19.125Z,97222.47
2019-02-15T12:53:47.425Z,97218.29
2019-02-15T12:56:15.670Z,97213.86
2019-02-15T12:58:43.960Z,97208.69
2019-02-15T13:01:12.216Z,97212.20
2019-02-15T13:03:40.474Z,97213.63
2019-02-15T13:06:08.759Z,97206.91
2019-02-15T13:08:37.021Z,97203.50
2019-02-15T13:11:05.308Z,97207.19
2019-02-15T13:13:33.607Z,97206.89
2019-02-15T13:16:01.864Z,97202.81
2019-02-15T13:18:30.184Z,97200.38
2019-02-15T13:20:58.444Z,97196.19
2019-02-15T13:23:26.703Z,97190.31
2019-02-15T13:25:55.055Z,97184.45
2019-02-15T13:28:23.366Z,97186.81
2019-02-15T13:30:51.622Z,97186.03
2019-02-15T13:33:19.882Z,97181.06
2019-02-15T13:35:48.157Z,97187.69
2019-02-15T13:38:16.475Z,97185.03
2019-02-15T13:40:44.947Z,97184.69
2019-02-15T13:43:13.264Z,97171.96
2019-02-15T13:45:41.558Z,97167.22
2019-02-15T13:48:09.833Z,97158.28
2019-02-15T13:50:38.109Z,97154.29
2019-02-15T13:53:06.406Z,97151.41
2019-02-15T13:55:34.666Z,97137.38
2019-02-15T13:58:02.962Z,97135.69
2019-02-15T14:00:31.218Z,97127.29
2019-02-15T14:02:59.513Z,97126.86
2019-02-15T14:05:27.783Z,97122.56
2019-02-15T14:07:56.125Z,97124.22
2019-02-15T14:10:24.383Z,97127.65
2019-02-15T14:12:52.647Z,97123.31
2019-02-15T14:15:20.927Z,97119.45
2019-02-15T14:17:49.192Z,97108.31
2019-02-15T14:20:17.586Z,97101.94
2019-02-15T14:22:45.878Z,97095.94
2019-02-15T14:25:14.162Z,97088.61
2019-02-15T14:27:42.476Z,97089.41
2019-02-15T14:30:12.087Z,97086.83
2019-02-15T14:32:40.527Z,97081.60
2019-02-15T14:35:10.316Z,97073.00
2019-02-15T14:37:38.623Z,97069.45
2019-02-15T14:40:11.661Z,97062.16
2019-02-15T14:42:39.922Z,97071.95
2019-02-15T14:45:10.398Z,97073.72
2019-02-15T14:47:38.662Z,97068.97
2019-02-15T14:50:08.699Z,97079.00
2019-02-15T14:52:36.961Z,97074.89
2019-02-15T14:55:07.294Z,97071.92
2019-02-15T14:57:35.558Z,97079.16
2019-02-15T15:00:04.722Z,97073.73
2019-02-15T15:02:32.982Z,97073.43
2019-02-15T15:05:01.287Z,97085.89
2019-02-15T15:07:29.542Z,97085.58
2019-02-15T15:09:57.799Z,97085.29
2019-02-15T15:12:26.087Z,97081.67
2019-02-15T15:14:54.337Z,97082.55
2019-02-15T15:17:22.675Z,97088.66
2019-02-15T15:19:50.918Z,97084.38
2019-02-15T15:22:19.185Z,97081.73
2019-02-15T15:24:47.481Z,97088.52
2019-02-15T15:27:15.740Z,97088.27
2019-02-15T15:29:44.008Z,97081.10
2019-02-15T15:32:12.294Z,97085.37
2019-02-15T15:34:40.546Z,97081.49
2019-02-15T15:37:16.203Z,97083.88
2019-02-15T15:39:38.850Z,97088.52
2019-02-15T15:42:07.114Z,97087.02
2019-02-15T15:44:35.412Z,97092.61
2019-02-15T15:47:04.230Z,97088.73
2019-02-15T15:49:32.525Z,97094.63
2019-02-15T15:52:00.787Z,97094.20
2019-02-15T15:54:29.116Z,97097.22
2019-02-15T15:56:57.374Z,97109.14
2019-02-15T15:59:25.665Z,97105.36
2019-02-15T16:01:53.920Z,97107.05
2019-02-15T16:04:22.190Z,97107.31
2019-02-15T16:06:50.494Z,97107.72
2019-02-15T16:09:18.746Z,97110.72
2019-02-15T16:11:47.022Z,97120.59
2019-02-15T16:14:15.273Z,97122.67
2019-02-15T16:16:43.598Z,97122.22
2019-02-15T16:19:11.828Z,97135.00
2019-02-15T16:21:40.111Z,97138.68
2019-02-15T16:24:12.666Z,97139.11
2019-02-15T16:26:38.360Z,97136.77
2019-02-15T16:29:06.630Z,97145.61
2019-02-15T16:31:34.892Z,97137.16
2019-02-15T16:34:03.186Z,97143.12
2019-02-15T16:36:31.471Z,97135.43
2019-02-15T16:38:59.728Z,97135.38
2019-02-15T16:41:28.035Z,97142.18
2019-02-15T16:43:56.300Z,97142.84
2019-02-15T16:46:24.556Z,97141.19
2019-02-15T16:48:52.850Z,97139.39
2019-02-15T16:51:21.163Z,97136.22
2019-02-15T16:53:49.424Z,97135.16
2019-02-15T16:56:17.685Z,97135.09
2019-02-15T16:58:46.092Z,97127.80
2019-02-15T17:01:14.348Z,97131.80
2019-02-15T17:03:42.608Z,97142.03
2019-02-15T17:06:10.922Z,97143.70
2019-02-15T17:08:39.177Z,97140.07
2019-02-15T17:11:07.458Z,97144.88
2019-02-15T17:13:35.750Z,97136.34
2019-02-15T17:16:04.009Z,97142.67
2019-02-15T17:18:32.276Z,97147.97
2019-02-15T17:21:00.533Z,97145.08
2019-02-15T17:23:28.833Z,97148.68
2019-02-15T17:25:57.119Z,97143.09
2019-02-15T17:28:25.424Z,97153.52
2019-02-15T17:30:53.722Z,97151.63
2019-02-15T17:33:21.984Z,97151.41
2019-02-15T17:35:50.238Z,97153.18
2019-02-15T17:38:18.506Z,97148.95
2019-02-15T17:40:46.793Z,97149.45
2019-02-15T17:43:15.074Z,97150.63
2019-02-15T17:45:43.327Z,97153.52
2019-02-15T17:48:11.622Z,97150.27
2019-02-15T17:50:39.881Z,97144.19
2019-02-15T17:53:08.201Z,97149.02
2019-02-15T17:55:36.456Z,97147.53
2019-02-15T17:58:04.783Z,97147.70
2019-02-15T18:00:33.297Z,97150.48
2019-02-15T18:03:01.645Z,97148.82
2019-02-15T18:05:29.894Z,97156.16
2019-02-15T18:07:58.188Z,97150.08
2019-02-15T18:10:26.449Z,97150.56
2019-02-15T18:12:54.718Z,97145.98
2019-02-15T18:15:23.024Z,97147.23
2019-02-15T18:17:51.309Z,97149.70
2019-02-15T18:20:19.593Z,97146.55
2019-02-15T18:22:47.930Z,97148.53
2019-02-15T18:25:16.226Z,97146.62
2019-02-15T18:27:44.496Z,97142.20
2019-02-15T18:30:14.911Z,97141.03
2019-02-15T18:32:43.230Z,97143.72
2019-02-15T18:35:11.469Z,97151.13
2019-02-15T18:37:39.740Z,97151.45
2019-02-15T18:40:09.841Z,97151.66
2019-02-15T18:42:38.132Z,97150.34
2019-02-15T18:45:16.762Z,97149.61
2019-02-15T18:47:45.051Z,97151.80
2019-02-15T18:50:13.336Z,97150.61
2019-02-15T18:52:41.591Z,97149.35
2019-02-15T18:55:10.921Z,97150.25
2019-02-15T18:57:39.182Z,97149.35
2019-02-15T19:00:14.787Z,97138.57
2019-02-15T19:02:45.105Z,97141.49
2019-02-15T19:05:13.900Z,97141.70
2019-02-15T19:07:42.160Z,97149.88
2019-02-15T19:10:15.788Z,97147.21
2019-02-15T19:12:44.049Z,97147.67
2019-02-15T19:15:14.486Z,97151.61
2019-02-15T19:17:42.743Z,97149.30
2019-02-15T19:20:13.384Z,97148.05
2019-02-15T19:22:41.637Z,97150.87
2019-02-15T19:25:14.804Z,97150.78
2019-02-15T19:27:43.124Z,97146.44
2019-02-15T19:30:16.797Z,97152.73
2019-02-15T19:32:45.126Z,97146.69
2019-02-15T19:35:13.409Z,97152.44
2019-02-15T19:37:41.684Z,97142.91
2019-02-15T19:40:12.472Z,97144.72
2019-02-15T19:42:42.166Z,97137.56
2019-02-15T19:45:11.904Z,97138.27
2019-02-15T19:47:40.163Z,97137.02
2019-02-15T19:50:11.195Z,97134.28
2019-02-15T19:52:39.690Z,97141.44
2019-02-15T19:55:09.529Z,97141.34
2019-02-15T19:57:37.797Z,97137.11
2019-02-15T20:00:14.657Z,97141.04
2019-02-15T20:02:42.918Z,97141.84
2019-02-15T20:05:11.182Z,97145.98
2019-02-15T20:07:39.489Z,97144.81
2019-02-15T20:10:10.697Z,97148.38
2019-02-15T20:12:39.064Z,97146.88
2019-02-15T20:15:10.306Z,97146.38
2019-02-15T20:17:38.590Z,97152.38
2019-02-15T20:20:11.976Z,97144.05
2019-02-15T20:22:40.267Z,97152.47
2019-02-15T20:25:10.666Z,97151.36
2019-02-15T20:27:39.146Z,97151.61
2019-02-15T20:30:15.655Z,97146.48
2019-02-15T20:32:43.945Z,97145.98
2019-02-15T20:35:13.609Z,97131.27
2019-02-15T20:37:41.952Z,97142.84
2019-02-15T20:40:11.589Z,97138.00
2019-02-15T20:42:39.830Z,97136.95
2019-02-15T20:45:17.128Z,97136.40
2019-02-15T20:47:45.395Z,97136.70
2019-02-15T20:50:14.193Z,97137.75
2019-02-15T20:52:42.511Z,97133.27
2019-02-15T20:55:13.107Z,97131.70
2019-02-15T20:57:41.359Z,97128.88
2019-02-15T21:00:15.948Z,97130.04
2019-02-15T21:02:44.204Z,97130.44
2019-02-15T21:05:12.459Z,97138.45
2019-02-15T21:07:40.763Z,97129.64
2019-02-15T21:10:11.369Z,97133.58
2019-02-15T21:12:45.917Z,97124.97
2019-02-15T21:15:17.009Z,97132.28
2019-02-15T21:17:45.295Z,97130.77
2019-02-15T21:20:14.694Z,97132.19
2019-02-15T21:22:42.949Z,97129.82
2019-02-15T21:25:12.976Z,97135.41
2019-02-15T21:27:41.238Z,97136.92
2019-02-15T21:30:11.969Z,97137.88
2019-02-15T21:32:40.228Z,97134.64
2019-02-15T21:35:08.525Z,97143.55
2019-02-15T21:37:36.781Z,97143.31
2019-02-15T21:40:08.505Z,97142.05
2019-02-15T21:43:13.025Z,97140.09
2019-02-15T21:45:41.584Z,97141.44
2019-02-15T21:48:09.964Z,97134.44
2019-02-15T21:50:38.351Z,97141.69
2019-02-15T21:53:06.680Z,97135.30
2019-02-15T21:55:35.016Z,97139.78
2019-02-15T21:58:03.302Z,97137.16
2019-02-15T22:00:31.608Z,97133.73
2019-02-15T22:03:00.173Z,97134.80
2019-02-15T22:05:28.606Z,97143.92
2019-02-15T22:07:57.122Z,97142.36
2019-02-15T22:10:25.692Z,97146.13
2019-02-15T22:12:54.360Z,97138.64
2019-02-15T22:15:22.814Z,97142.36
2019-02-15T22:17:51.330Z,97142.66
2019-02-15T22:20:26.336Z,97142.11
2019-02-15T22:22:50.108Z,97137.74
2019-02-15T22:25:18.435Z,97134.45
2019-02-15T22:27:46.686Z,97131.63
2019-02-15T22:30:19.983Z,97138.94
2019-02-15T22:32:48.265Z,97138.64
2019-02-15T22:35:16.533Z,97129.91
2019-02-15T22:37:44.805Z,97130.96
2019-02-15T22:40:33.271Z,97134.40
2019-02-15T22:43:10.813Z,97128.91
2019-02-15T22:45:39.112Z,97132.47
2019-02-15T22:48:07.439Z,97134.59
2019-02-15T22:50:36.482Z,97135.84
2019-02-15T22:53:04.873Z,97135.45
2019-02-15T22:55:33.173Z,97133.39
2019-02-15T22:58:01.501Z,97132.63
2019-02-15T23:00:40.593Z,97134.03
2019-02-15T23:03:08.935Z,97137.02
2019-02-15T23:05:37.267Z,97134.25
2019-02-15T23:08:05.556Z,97133.78
2019-02-15T23:10:33.812Z,97130.01
2019-02-15T23:13:02.114Z,97129.61
2019-02-15T23:15:30.377Z,97133.45
2019-02-15T23:17:58.678Z,97130.03
2019-02-15T23:20:26.979Z,97130.03
2019-02-15T23:22:55.298Z,97128.86
2019-02-15T23:25:24.991Z,97133.59
2019-02-15T23:27:53.508Z,97124.78
2019-02-15T23:30:21.808Z,97128.16
2019-02-15T23:32:50.078Z,97126.10
2019-02-15T23:35:18.350Z,97133.59
2019-02-15T23:37:47.180Z,97125.80
2019-02-15T23:40:15.488Z,97119.04
2019-02-15T23:42:43.781Z,97118.95
2019-02-15T23:45:12.062Z,97117.08
2019-02-15T23:47:40.325Z,97119.91
2019-02-15T23:50:09.181Z,97117.23
2019-02-15T23:52:37.438Z,97114.31
2019-02-15T23:55:06.101Z,97113.70
2019-02-15T23:57:34.374Z,97111.55
